Portada
METAR-TAF:

METAR-TAF

Aeropuertos :

Bizerta, Túnez

latitud: 37-15N, longitud: 009-48E, altitud: 5 m

Observación

El informe se hizo hace 34 minutos, a las 11:00 UTC
Viento 14 kt del oeste-noroeste
Temperatura 16°C
Humedad 48%
Presión 1026 hPa
Visibilidad 10 km o más
Nubes dispersas a una altura de 2000 ft

METAR: DTTB 201100Z 30014KT 9999 SCT020 16/05 Q1026

Hora: 12:34 (11:34 UTC)

Pronóstico

El informe se hizo hace 2 horas y 34 minutos, a las 09:00 UTC
Pronóstico válido del 20 a las 10 UTC al 20 a las 19 UTC
Viento 16 kt del oeste-noroeste
Visibilidad 10 km o más
Nubes dispersas a una altura de 2000 ft
Evolucionando progresivamente
del 20 a las 16 UTC al 20 a las 18 UTC
Viento 8 kt del oeste-suroeste

TAF: DTTB 200900Z 2010/2019 30016KT 9999 SCT020 BECMG 2016/2018 25008KT

Observaciones y pronósticos meteorológicos de más de 4000 aeropuertos (mensajes METAR y TAF).

Los puntos amarillos y rojos representan las estaciones disponibles.

Ponga el ratón en el punto deseado para ver el nombre de la estación.

Haga clic para ver las observaciones y los pronósticos meteorológicos.

Para cambiar el mapa : haga clic en los botones verdes con una cruz de color negro para hacer un zoom, en el botón verde con un guión para alejar o en las flechas verdes para mapas adyacentes.


METAR-TAF: